This is the latest recevied weather packets stored in our database for station/object CE3TL-WX. If no packets are shown the sender has not sent any weather packets the latest 1 day(s).
| Time | Temp. | Humidity | Pressure | Rain* | Wind** | Luminosity | Snow |
|---|---|---|---|---|---|---|---|
| 1836274612 | 10° C | 73% | 1027.2 hPa | - | 1.34 m/s, 0° | - | - |
| 1836274397 | 10° C | 74% | 1027.1 hPa | - | 1.34 m/s, 0° | - | - |
| 1836274076 | 10° C | 73% | 1027.3 hPa | - | 1.79 m/s, 0° | - | - |
| 1778030868 | 14.44° C | 67% | 1023.1 hPa | - | 0 m/s | - | - |
| 1778030334 | 13.89° C | 69% | 1023.2 hPa | - | 0.89 m/s, 0° | - | - |
| 1778029800 | 14.44° C | 67% | 1023.1 hPa | - | 0.89 m/s, 0° | - | - |
| 1778029265 | 14.44° C | 68% | 1023.3 hPa | - | 1.34 m/s, 0° | - | - |
| 1778028730 | 14.44° C | 66% | 1023.2 hPa | - | 1.34 m/s, 0° | - | - |
| 1778028196 | 14.44° C | 66% | 1023.2 hPa | - | 1.34 m/s, 0° | - | - |
| 1778027662 | 15° C | 66% | 1023.2 hPa | - | 1.34 m/s, 0° | - | - |
| 1778027128 | 15° C | 65% | 1022.9 hPa | - | 1.34 m/s, 0° | - | - |
| 1778026594 | 15° C | 64% | 1022.4 hPa | - | 0.89 m/s, 0° | - | - |
| 1778026061 | 15.56° C | 63% | 1022.5 hPa | - | 1.34 m/s, 0° | - | - |
| 1778025527 | 15.56° C | 62% | 1022.2 hPa | - | 1.34 m/s, 0° | - | - |
| 1778024993 | 15.56° C | 63% | 1022.3 hPa | - | 1.34 m/s, 0° | - | - |
| 1778024460 | 15.56° C | 63% | 1022.2 hPa | - | 1.79 m/s, 0° | - | - |
| 1778023926 | 16.11° C | 62% | 1022.2 hPa | - | 1.34 m/s, 0° | - | - |
| 1778023392 | 16.11° C | 61% | 1022.1 hPa | - | 1.34 m/s, 0° | - | - |
| 1778022857 | 16.11° C | 61% | 1022.1 hPa | - | 0.89 m/s, 0° | - | - |
| 1778021256 | 16.67° C | 58% | 1021.7 hPa | - | 1.34 m/s, 0° | - | - |
| 1778020722 | 16.67° C | 58% | 1021.6 hPa | - | 0.45 m/s, 0° | - | - |
| 1778020188 | 16.67° C | 57% | 1021.5 hPa | - | 0.89 m/s, 0° | - | - |
| 1778019654 | 17.22° C | 54% | 1021.3 hPa | - | 1.79 m/s, 0° | - | - |
| 1778019119 | 17.22° C | 54% | 1021.3 hPa | - | 0.89 m/s, 0° | - | - |
| 1778018585 | 17.22° C | 51% | 1021.2 hPa | - | 1.34 m/s, 0° | - | - |
* Rain since midnight (hover to see other rain measurements)
** Current wind speed in m/s (hover to see current wind gust speed)